Time;durP1;ratioP1;P1;durP2;ratioP2;P2;SDS_P1;SDS_P2;PMS_P1;PMS_P2;Temp;Humidity;BMP_temperature;BMP_pressure;BME280_temperature;BME280_humidity;BME280_pressure;Samples;Min_cycle;Max_cycle;Signal;HPM_P1;HPM_P2
2023/01/05 00:01:44;;;;;;;5.97;4.28;;;;;;;20.27;51.49;100745.19;20840058;28;20045;-71
2023/01/05 00:22:31;;;;;;;5.35;4.25;;;;;;;20.25;50.94;100669.97;20847380;28;20037;-70
2023/01/05 00:32:31;;;;;;;6.05;4.20;;;;;;;20.23;51.00;100666.63;20846481;28;20491;-72
2023/01/05 00:42:32;;;;;;;5.03;3.85;;;;;;;20.23;51.20;100666.63;20847830;28;20631;-72
2023/01/05 00:52:32;;;;;;;5.10;3.70;;;;;;;20.24;51.47;100690.19;20849296;28;25575;-72
2023/01/05 01:02:33;;;;;;;5.95;3.83;;;;;;;20.22;51.48;100670.19;20849178;28;20407;-71
2023/01/05 01:12:33;;;;;;;5.28;3.78;;;;;;;20.21;51.65;100655.38;20851953;28;20055;-71
2023/01/05 01:22:34;;;;;;;4.65;3.53;;;;;;;20.21;51.73;100679.88;20837600;28;20045;-72
2023/01/05 01:32:34;;;;;;;4.82;3.60;;;;;;;20.19;51.61;100670.41;20839769;28;20486;-72
2023/01/05 01:42:35;;;;;;;4.50;3.50;;;;;;;20.18;51.75;100648.53;20852857;28;20785;-71
2023/01/05 01:52:37;;;;;;;4.78;3.40;;;;;;;20.18;51.30;100608.25;20843668;28;20048;-71
2023/01/05 02:02:37;;;;;;;4.85;3.70;;;;;;;20.18;51.89;100603.84;20836017;28;20044;-72
2023/01/05 02:12:47;;;;;;;4.63;3.05;;;;;;;20.18;51.60;100593.31;20841047;28;20106;-71
2023/01/05 02:23:22;;;;;;;3.95;3.28;;;;;;;20.18;51.94;100610.88;20821911;28;20400;-72
2023/01/05 02:33:43;;;;;;;3.75;2.92;;;;;;;20.18;52.04;100564.41;20844141;28;20099;-71
2023/01/05 02:43:44;;;;;;;4.13;3.13;;;;;;;20.18;51.72;100564.41;20842988;28;20397;-71
2023/01/05 02:54:08;;;;;;;4.22;3.35;;;;;;;20.18;51.87;100530.22;20838443;28;20041;-71
2023/01/05 03:04:16;;;;;;;4.18;3.10;;;;;;;20.17;51.90;100531.16;20840015;28;20041;-72
2023/01/05 03:14:30;;;;;;;4.38;3.00;;;;;;;20.17;52.04;100546.13;20856456;28;20076;-72
2023/01/05 03:45:30;;;;;;;4.57;2.90;;;;;;;20.14;51.79;100453.34;20867612;28;20040;-72
2023/01/05 03:55:31;;;;;;;3.63;2.60;;;;;;;20.13;51.92;100454.31;20869745;28;20056;-71
2023/01/05 04:05:31;;;;;;;2.97;2.65;;;;;;;20.12;51.76;100436.84;20857337;28;20052;-71
2023/01/05 04:15:31;;;;;;;2.92;2.60;;;;;;;20.14;52.10;100448.09;20891108;28;20045;-70
2023/01/05 04:25:32;;;;;;;3.35;2.55;;;;;;;20.14;52.10;100436.72;20873845;28;20045;-70
2023/01/05 04:35:32;;;;;;;3.47;2.90;;;;;;;20.14;52.12;100413.06;20852775;28;20132;-71
2023/01/05 04:45:33;;;;;;;3.00;2.50;;;;;;;20.13;51.90;100409.63;20849230;28;20151;-70
2023/01/05 04:55:33;;;;;;;3.05;2.60;;;;;;;20.14;51.88;100415.69;20866439;28;20156;-72
2023/01/05 05:05:34;;;;;;;4.65;2.50;;;;;;;20.13;52.01;100416.69;20864369;28;20068;-71
2023/01/05 05:15:35;;;;;;;3.30;2.70;;;;;;;20.15;52.61;100415.59;20858707;28;20091;-71
2023/01/05 05:25:35;;;;;;;3.03;2.20;;;;;;;20.23;52.34;100417.66;20854257;28;20049;-70
2023/01/05 05:35:36;;;;;;;2.83;2.38;;;;;;;20.30;52.95;100410.19;20834584;28;20404;-70
2023/01/05 05:45:36;;;;;;;2.85;2.10;;;;;;;20.36;52.72;100374.69;20858082;28;20045;-72
2023/01/05 05:55:47;;;;;;;2.65;2.10;;;;;;;20.42;52.79;100403.16;20848910;28;20075;-70
2023/01/05 06:05:48;;;;;;;2.20;2.00;;;;;;;20.48;53.10;100390.41;20827102;28;20045;-70
2023/01/05 06:15:50;;;;;;;2.20;2.00;;;;;;;20.54;53.24;100370.69;20817832;28;20745;-71
2023/01/05 06:25:50;;;;;;;2.40;2.20;;;;;;;20.58;52.79;100366.88;20841041;28;20047;-71
2023/01/05 06:35:51;;;;;;;2.53;2.10;;;;;;;20.64;53.37;100366.41;20821356;28;20045;-73
2023/01/05 06:45:51;;;;;;;3.50;2.60;;;;;;;20.72;53.60;100336.09;20801849;28;20037;-73
2023/01/05 06:55:52;;;;;;;4.07;2.30;;;;;;;20.77;53.56;100321.63;20841437;28;20044;-73
2023/01/05 07:05:53;;;;;;;6.25;2.45;;;;;;;20.82;52.91;100317.81;20816371;28;20046;-72
2023/01/05 07:15:54;;;;;;;8.35;2.00;;;;;;;20.88;53.58;100320.78;20800401;28;20094;-73
2023/01/05 07:25:54;;;;;;;3.17;2.58;;;;;;;20.95;53.69;100318.53;20837536;28;20057;-73
2023/01/05 07:35:55;;;;;;;4.18;2.60;;;;;;;21.00;54.09;100265.53;20812608;28;20041;-73
2023/01/05 07:45:59;;;;;;;7.28;3.08;;;;;;;21.04;53.71;100269.59;20828143;28;20041;-73
2023/01/05 07:56:00;;;;;;;14.57;4.47;;;;;;;20.70;49.34;100285.34;20783730;28;20053;-74
2023/01/05 08:06:06;;;;;;;7.07;3.13;;;;;;;20.96;51.16;100296.53;20730930;28;20412;-72
2023/01/05 08:16:07;;;;;;;5.63;3.38;;;;;;;21.07;52.04;100259.66;20759254;28;20060;-74
2023/01/05 08:26:11;;;;;;;5.93;2.88;;;;;;;21.14;52.43;100283.72;20734470;28;20139;-72
2023/01/05 08:36:15;;;;;;;6.30;2.90;;;;;;;21.19;52.83;100278.91;20752661;28;20072;-72
2023/01/05 08:46:15;;;;;;;9.65;4.65;;;;;;;21.25;53.19;100282.84;20760860;28;20048;-74
2023/01/05 08:56:16;;;;;;;6.47;3.88;;;;;;;21.29;53.62;100263.22;20775405;28;20076;-75
2023/01/05 09:06:17;;;;;;;7.63;4.45;;;;;;;21.33;54.26;100283.06;20828572;28;20137;-72
2023/01/05 09:16:21;;;;;;;6.85;4.80;;;;;;;21.36;53.90;100292.53;20862533;28;20041;-73
2023/01/05 09:26:23;;;;;;;7.43;5.13;;;;;;;21.36;53.93;100287.25;20842546;28;20131;-72
2023/01/05 09:36:24;;;;;;;6.93;5.28;;;;;;;21.35;54.06;100264.50;20816238;28;20183;-72
2023/01/05 09:46:34;;;;;;;10.30;6.10;;;;;;;21.35;53.53;100219.72;20849491;28;20095;-73
2023/01/05 09:56:43;;;;;;;8.25;5.65;;;;;;;21.36;53.79;100216.16;20843740;28;20048;-75
2023/01/05 10:06:48;;;;;;;8.23;5.72;;;;;;;21.37;53.90;100210.78;20866767;28;20063;-74
2023/01/05 10:16:48;;;;;;;7.82;5.90;;;;;;;21.37;53.72;100184.44;20849235;28;20044;-74
2023/01/05 10:26:56;;;;;;;9.05;6.50;;;;;;;21.36;54.05;100180.13;20860368;28;20055;-74
2023/01/05 10:37:29;;;;;;;8.43;6.40;;;;;;;21.35;54.26;100281.16;20829742;28;22144;-77
2023/01/05 10:47:36;;;;;;;9.15;6.20;;;;;;;21.32;54.71;100264.78;20817287;28;20033;-76
2023/01/05 10:57:39;;;;;;;8.95;6.20;;;;;;;21.31;54.60;100263.09;20842482;28;20041;-73
2023/01/05 11:07:52;;;;;;;10.07;6.68;;;;;;;21.30;54.31;100251.75;20828287;28;20048;-79
2023/01/05 11:17:52;;;;;;;7.68;5.68;;;;;;;21.28;54.47;100270.28;20843283;28;20048;-74
2023/01/05 11:28:14;;;;;;;7.75;5.32;;;;;;;21.27;54.40;100281.75;20819237;28;20170;-75
2023/01/05 11:38:33;;;;;;;11.63;5.80;;;;;;;21.27;54.72;100273.03;20810439;28;20069;-74
2023/01/05 11:48:35;;;;;;;7.78;4.60;;;;;;;21.29;54.23;100260.59;20839191;28;20153;-78
2023/01/05 11:58:49;;;;;;;12.02;5.13;;;;;;;21.30;54.31;100224.53;20858437;28;21016;-81
2023/01/05 12:09:02;;;;;;;5.75;4.55;;;;;;;21.31;54.00;100237.59;20852204;28;20044;-79
2023/01/05 12:19:19;;;;;;;8.25;4.50;;;;;;;21.30;53.97;100259.63;20858378;28;20480;-80
2023/01/05 12:29:41;;;;;;;5.47;4.05;;;;;;;21.33;54.41;100287.53;20848938;28;20390;-78
2023/01/05 12:40:03;;;;;;;2.80;2.15;;;;;;;20.91;46.80;100294.25;20833178;28;20066;-75
2023/01/05 12:50:31;;;;;;;3.28;2.20;;;;;;;21.17;51.19;100256.31;20825092;28;20064;-79
2023/01/05 13:00:36;;;;;;;3.60;2.22;;;;;;;21.20;51.91;100206.88;20832947;28;20097;-80
2023/01/05 13:10:47;;;;;;;3.53;2.20;;;;;;;21.26;52.11;100184.44;20875024;28;20064;-79
2023/01/05 13:20:58;;;;;;;6.60;2.40;;;;;;;21.28;52.61;100174.63;20866522;28;20044;-80
2023/01/05 13:31:20;;;;;;;5.50;2.28;;;;;;;21.32;52.71;100226.09;20859223;28;20045;-80
2023/01/05 13:41:41;;;;;;;5.20;2.37;;;;;;;21.35;52.62;100228.50;20862626;28;20140;-78
2023/01/05 13:52:00;;;;;;;2.58;1.73;;;;;;;21.38;53.00;100225.59;20829740;28;20064;-77
2023/01/05 14:02:03;;;;;;;5.00;2.20;;;;;;;21.41;52.64;100233.25;20845686;28;20040;-77
2023/01/05 14:12:08;;;;;;;4.10;1.93;;;;;;;21.42;52.84;100250.75;20830973;28;20041;-78
2023/01/05 14:22:18;;;;;;;2.25;1.70;;;;;;;21.44;53.20;100264.59;20832516;28;20144;-78
2023/01/05 14:32:32;;;;;;;3.67;2.25;;;;;;;21.47;53.42;100271.47;20817623;28;20049;-78
2023/01/05 14:42:38;;;;;;;2.58;1.95;;;;;;;21.51;53.89;100269.41;20854430;28;20060;-79
2023/01/05 14:53:08;;;;;;;3.60;1.90;;;;;;;21.53;54.18;100270.97;20847231;28;20033;-78
2023/01/05 15:03:17;;;;;;;1.73;1.60;;;;;;;21.54;53.81;100285.78;20839965;28;20101;-81
2023/01/05 15:13:29;;;;;;;2.15;1.63;;;;;;;21.53;54.29;100299.94;20835641;28;20059;-78
2023/01/05 15:23:49;;;;;;;4.15;2.03;;;;;;;21.52;54.07;100302.66;20845317;28;20067;-76
2023/01/05 15:34:19;;;;;;;5.20;1.90;;;;;;;21.51;54.71;100298.38;20845083;28;20092;-76
2023/01/05 15:44:20;;;;;;;3.03;1.52;;;;;;;21.49;54.43;100293.22;20792840;28;20045;-75
2023/01/05 15:54:27;;;;;;;1.55;1.20;;;;;;;21.50;54.44;100294.91;20833351;28;21484;-76
2023/01/05 16:04:27;;;;;;;1.40;1.20;;;;;;;21.50;54.12;100297.53;20837979;28;20048;-75
2023/01/05 16:14:37;;;;;;;1.90;1.35;;;;;;;21.50;54.38;100315.97;20839264;28;20041;-76
2023/01/05 16:24:50;;;;;;;2.10;1.40;;;;;;;21.48;54.34;100317.88;20822878;28;20125;-76
2023/01/05 16:34:51;;;;;;;;;;;;;;;21.44;54.38;100330.47;20812770;28;20408;-78
2023/01/05 16:44:54;;;;;;;2.47;1.50;;;;;;;21.42;54.49;100326.28;20825723;28;19932;-79
2023/01/05 16:55:34;;;;;;;4.18;2.00;;;;;;;21.40;54.74;100349.28;20811208;28;20071;-78
2023/01/05 17:05:35;;;;;;;3.78;1.98;;;;;;;21.40;54.46;100328.22;20831622;28;20102;-78
2023/01/05 17:15:36;;;;;;;2.42;2.17;;;;;;;21.40;54.35;100328.22;20840578;28;20033;-80
2023/01/05 17:25:36;;;;;;;3.60;2.25;;;;;;;21.44;54.46;100330.47;20809554;28;20076;-78
2023/01/05 17:35:37;;;;;;;5.18;2.00;;;;;;;21.50;54.04;100336.22;20823985;28;20045;-80
2023/01/05 17:45:41;;;;;;;3.45;2.00;;;;;;;21.55;54.20;100371.78;20848731;28;20472;-78
2023/01/05 17:55:42;;;;;;;4.00;2.53;;;;;;;21.62;54.26;100368.69;20826264;28;20040;-78
2023/01/05 18:05:43;;;;;;;7.03;3.53;;;;;;;21.69;54.46;100349.63;20826357;28;20037;-75
2023/01/05 18:15:46;;;;;;;9.25;4.05;;;;;;;21.75;54.81;100351.78;20793978;28;20051;-75
2023/01/05 18:25:46;;;;;;;14.98;8.52;;;;;;;21.82;55.04;100338.09;20821723;28;20160;-75
2023/01/05 18:35:47;;;;;;;16.52;10.45;;;;;;;21.86;55.18;100339.50;20807660;28;20099;-75
2023/01/05 18:45:55;;;;;;;16.83;9.50;;;;;;;21.89;54.91;100352.47;20827621;28;20037;-77
2023/01/05 18:55:56;;;;;;;14.27;9.20;;;;;;;21.91;55.19;100369.81;20813915;28;20138;-77
2023/01/05 19:05:56;;;;;;;12.15;8.85;;;;;;;21.94;54.66;100360.81;20813079;28;20037;-76
2023/01/05 19:16:00;;;;;;;13.60;8.35;;;;;;;21.96;54.68;100389.69;20814507;28;20472;-76
2023/01/05 19:26:03;;;;;;;16.33;7.85;;;;;;;21.93;54.50;100392.59;20821047;28;20068;-77
2023/01/05 19:36:06;;;;;;;9.90;7.10;;;;;;;21.94;53.91;100415.38;20797067;28;20045;-75
2023/01/05 19:46:12;;;;;;;13.15;6.70;;;;;;;21.92;53.83;100415.47;20833102;28;20807;-75
2023/01/05 19:56:14;;;;;;;9.70;6.25;;;;;;;21.91;53.68;100401.47;20849833;28;20041;-80
2023/01/05 20:06:21;;;;;;;11.57;6.18;;;;;;;21.89;53.12;100387.56;20817790;28;20128;-79
2023/01/05 20:16:22;;;;;;;9.93;5.53;;;;;;;21.88;53.83;100406.97;20819299;28;20429;-77
2023/01/05 20:26:23;;;;;;;10.25;5.45;;;;;;;21.87;53.58;100438.72;20826547;28;20049;-78
2023/01/05 20:36:25;;;;;;;10.07;5.30;;;;;;;21.79;51.72;100451.66;20798440;28;20044;-73
2023/01/05 20:46:30;;;;;;;9.17;4.30;;;;;;;21.71;52.84;100473.38;20848011;28;20084;-71
2023/01/05 20:56:37;;;;;;;6.70;3.58;;;;;;;21.70;52.67;100484.88;20856260;28;20281;-73
2023/01/05 21:06:40;;;;;;;8.75;3.70;;;;;;;21.65;52.78;100490.50;20858329;28;20571;-72
2023/01/05 21:16:52;;;;;;;6.30;3.88;;;;;;;21.61;52.92;100490.88;20840232;28;20037;-73
2023/01/05 21:26:53;;;;;;;7.88;3.63;;;;;;;21.55;53.47;100490.34;20858454;28;20048;-73
2023/01/05 21:36:53;;;;;;;6.70;3.50;;;;;;;21.52;53.30;100500.28;20852669;28;20538;-74
2023/01/05 21:46:54;;;;;;;8.27;3.33;;;;;;;21.44;52.96;100511.41;20832306;28;20056;-74
2023/01/05 21:56:57;;;;;;;5.05;3.00;;;;;;;21.36;52.91;100525.16;20841722;28;20052;-76
2023/01/05 22:06:58;;;;;;;6.05;3.05;;;;;;;21.37;53.12;100526.00;20845898;28;20048;-73
2023/01/05 22:16:59;;;;;;;3.47;2.65;;;;;;;21.30;52.88;100546.72;20845239;28;20064;-73
2023/01/05 22:27:00;;;;;;;4.57;2.72;;;;;;;21.25;53.49;100539.16;20844064;28;20155;-74
2023/01/05 22:37:00;;;;;;;4.57;2.78;;;;;;;21.23;53.83;100548.13;20831998;28;20557;-74
2023/01/05 22:47:00;;;;;;;3.17;2.30;;;;;;;21.18;53.73;100566.03;20845677;28;20095;-74
2023/01/05 22:57:01;;;;;;;4.43;2.40;;;;;;;21.16;54.15;100578.50;20848498;28;20190;-76
2023/01/05 23:07:01;;;;;;;2.83;2.00;;;;;;;21.14;53.93;100576.00;20830580;28;20041;-74
2023/01/05 23:17:02;;;;;;;7.43;2.25;;;;;;;21.09;53.65;100554.41;20852672;28;20071;-73
2023/01/05 23:27:02;;;;;;;2.70;2.10;;;;;;;21.04;54.13;100559.19;20834911;28;20547;-74
2023/01/05 23:37:03;;;;;;;2.42;2.00;;;;;;;21.02;53.96;100590.91;20814956;28;20049;-73
2023/01/05 23:47:04;;;;;;;2.50;1.92;;;;;;;21.00;54.04;100611.22;20831752;28;20403;-73
2023/01/05 23:57:04;;;;;;;2.67;1.90;;;;;;;20.97;53.79;100622.00;20845094;28;20048;-74
